createdAt,value
2022-08-25T00:01:23.789Z,94494.94
2022-08-25T00:03:55.161Z,94501.59
2022-08-25T00:06:23.828Z,94499.66
2022-08-25T00:08:51.164Z,94482.75
2022-08-25T00:11:23.915Z,94496.91
2022-08-25T00:13:55.916Z,94496.06
2022-08-25T00:16:23.303Z,94499.81
2022-08-25T00:18:56.738Z,94493.00
2022-08-25T00:21:23.644Z,94498.53
2022-08-25T00:23:50.707Z,94503.00
2022-08-25T00:26:17.977Z,94506.31
2022-08-25T00:28:45.095Z,94498.66
2022-08-25T00:31:14.645Z,94497.53
2022-08-25T00:33:43.095Z,94502.06
2022-08-25T00:36:12.253Z,94501.28
2022-08-25T00:38:40.592Z,94495.59
2022-08-25T00:41:08.289Z,94487.88
2022-08-25T00:43:46.601Z,94502.22
2022-08-25T00:46:18.649Z,94491.56
2022-08-25T00:48:49.299Z,94490.00
2022-08-25T00:51:36.881Z,94492.88
2022-08-25T00:54:05.486Z,94488.63
2022-08-25T00:56:32.268Z,94489.66
2022-08-25T00:58:59.903Z,94488.00
2022-08-25T01:01:27.159Z,94482.97
2022-08-25T01:03:54.111Z,94480.69
2022-08-25T01:06:21.386Z,94489.31
2022-08-25T01:08:48.176Z,94488.09
2022-08-25T01:11:14.814Z,94478.63
2022-08-25T01:13:45.433Z,94482.81
2022-08-25T01:16:14.898Z,94486.56
2022-08-25T01:18:44.552Z,94481.94
2022-08-25T01:21:11.322Z,94480.84
2022-08-25T01:23:38.666Z,94475.88
2022-08-25T01:26:11.256Z,94476.91
2022-08-25T01:28:38.550Z,94468.97
2022-08-25T01:31:05.339Z,94464.78
2022-08-25T01:33:51.010Z,94464.38
2022-08-25T01:36:22.376Z,94461.41
2022-08-25T01:38:49.434Z,94462.16
2022-08-25T01:41:48.725Z,94452.03
2022-08-25T01:44:18.511Z,94456.84
2022-08-25T01:46:45.225Z,94457.97
2022-08-25T01:49:12.114Z,94453.03
2022-08-25T01:51:44.756Z,94457.13
2022-08-25T01:54:11.347Z,94453.69
2022-08-25T01:56:38.755Z,94454.38
2022-08-25T01:59:05.467Z,94444.56
2022-08-25T02:01:32.522Z,94456.28
2022-08-25T02:03:59.619Z,94446.28
2022-08-25T02:06:33.199Z,94445.59
2022-08-25T02:09:07.760Z,94444.31
2022-08-25T02:11:37.048Z,94450.78
2022-08-25T02:14:04.319Z,94443.09
2022-08-25T02:16:33.283Z,94441.13
2022-08-25T02:19:00.936Z,94436.97
2022-08-25T02:21:28.226Z,94438.06
2022-08-25T02:23:55.182Z,94436.19
2022-08-25T02:26:22.649Z,94441.13
2022-08-25T02:28:51.116Z,94432.00
2022-08-25T02:31:20.515Z,94431.59
2022-08-25T02:33:47.113Z,94421.34
2022-08-25T02:36:13.791Z,94429.94
2022-08-25T02:38:40.723Z,94425.38
2022-08-25T02:41:17.961Z,94425.25
2022-08-25T02:43:45.318Z,94428.56
2022-08-25T02:46:12.331Z,94430.44
2022-08-25T02:48:39.912Z,94426.72
2022-08-25T02:51:08.775Z,94430.44
2022-08-25T02:53:38.252Z,94428.91
2022-08-25T02:56:05.285Z,94424.06
2022-08-25T02:58:31.931Z,94419.56
2022-08-25T03:00:58.577Z,94421.50
2022-08-25T03:03:25.306Z,94422.28
2022-08-25T03:05:52.079Z,94422.94
2022-08-25T03:08:18.747Z,94427.38
2022-08-25T03:10:45.366Z,94416.03
2022-08-25T03:13:14.148Z,94417.47
2022-08-25T03:15:42.501Z,94416.25
2022-08-25T03:18:09.341Z,94409.34
2022-08-25T03:20:36.042Z,94417.28
2022-08-25T03:23:04.141Z,94406.25
2022-08-25T03:25:49.094Z,94407.13
2022-08-25T03:28:15.917Z,94408.22
2022-08-25T03:30:42.957Z,94414.19
2022-08-25T03:33:10.003Z,94414.09
2022-08-25T03:35:36.804Z,94419.28
2022-08-25T03:38:04.004Z,94421.81
2022-08-25T03:40:31.181Z,94422.19
2022-08-25T03:42:58.038Z,94422.84
2022-08-25T03:45:25.528Z,94417.81
2022-08-25T03:47:53.495Z,94428.78
2022-08-25T03:50:22.446Z,94420.44
2022-08-25T03:52:56.987Z,94418.91
2022-08-25T03:55:25.664Z,94421.09
2022-08-25T03:57:54.570Z,94421.44
2022-08-25T04:00:23.140Z,94424.84
2022-08-25T04:02:49.922Z,94426.38
2022-08-25T04:05:16.706Z,94427.59
2022-08-25T04:07:43.611Z,94437.81
2022-08-25T04:10:10.930Z,94438.47
2022-08-25T04:12:38.502Z,94429.81
2022-08-25T04:15:07.470Z,94434.63
2022-08-25T04:17:38.849Z,94428.16
2022-08-25T04:20:08.365Z,94431.56
2022-08-25T04:22:36.840Z,94414.94
2022-08-25T04:25:05.947Z,94424.75
2022-08-25T04:27:32.550Z,94422.88
2022-08-25T04:29:59.162Z,94424.84
2022-08-25T04:32:25.790Z,94419.56
2022-08-25T04:34:52.556Z,94413.84
2022-08-25T04:37:19.182Z,94412.19
2022-08-25T04:39:45.932Z,94415.72
2022-08-25T04:42:12.583Z,94415.38
2022-08-25T04:44:39.206Z,94424.06
2022-08-25T04:47:06.032Z,94423.28
2022-08-25T04:49:32.847Z,94415.38
2022-08-25T04:51:59.507Z,94421.09
2022-08-25T04:54:28.071Z,94422.63
2022-08-25T04:56:58.101Z,94421.09
2022-08-25T04:59:27.330Z,94427.16
2022-08-25T05:01:58.687Z,94423.75
2022-08-25T05:04:28.336Z,94423.75
2022-08-25T05:06:56.725Z,94422.63
2022-08-25T05:09:24.118Z,94426.38
2022-08-25T05:11:52.427Z,94425.19
2022-08-25T05:14:25.688Z,94424.19
2022-08-25T05:16:54.772Z,94423.50
2022-08-25T05:19:23.586Z,94430.31
2022-08-25T05:21:50.382Z,94414.38
2022-08-25T05:24:16.986Z,94428.78
2022-08-25T05:26:43.861Z,94431.19
2022-08-25T05:29:11.767Z,94431.38
2022-08-25T05:31:43.124Z,94421.25
2022-08-25T05:34:12.114Z,94413.09
2022-08-25T05:36:43.174Z,94412.19
2022-08-25T05:39:10.573Z,94414.69
2022-08-25T05:41:37.377Z,94409.31
2022-08-25T05:44:04.353Z,94401.13
2022-08-25T05:46:31.792Z,94405.06
2022-08-25T05:48:59.025Z,94399.09
2022-08-25T05:51:26.315Z,94403.28
2022-08-25T05:53:53.122Z,94408.47
2022-08-25T05:56:20.022Z,94409.50
2022-08-25T05:58:46.903Z,94402.31
2022-08-25T06:01:50.024Z,94404.22
2022-08-25T06:04:18.024Z,94407.28
2022-08-25T06:06:44.694Z,94407.72
2022-08-25T06:09:11.605Z,94402.84
2022-08-25T06:11:40.062Z,94407.72
2022-08-25T06:14:08.771Z,94405.06
2022-08-25T06:16:35.485Z,94410.34
2022-08-25T06:19:02.191Z,94395.59
2022-08-25T06:21:29.197Z,94401.50
2022-08-25T06:23:55.850Z,94400.56
2022-08-25T06:26:23.436Z,94396.41
2022-08-25T06:28:51.761Z,94398.34
2022-08-25T06:31:19.696Z,94400.81
2022-08-25T06:33:46.790Z,94401.34
2022-08-25T06:36:13.741Z,94395.38
2022-08-25T06:38:40.321Z,94399.03
2022-08-25T06:41:10.575Z,94399.91
2022-08-25T06:43:45.033Z,94390.16
2022-08-25T06:46:19.260Z,94391.44
2022-08-25T06:48:46.047Z,94390.06
2022-08-25T06:51:15.171Z,94392.47
2022-08-25T06:53:43.432Z,94395.53
2022-08-25T06:56:11.162Z,94386.50
2022-08-25T06:58:38.855Z,94382.75
2022-08-25T07:01:19.792Z,94385.56
2022-08-25T07:03:47.524Z,94387.44
2022-08-25T07:06:16.585Z,94384.50
2022-08-25T07:08:46.442Z,94386.47
2022-08-25T07:11:17.379Z,94386.28
2022-08-25T07:13:44.753Z,94386.44
2022-08-25T07:16:11.674Z,94381.16
2022-08-25T07:18:38.406Z,94391.88
2022-08-25T07:21:05.423Z,94393.28
2022-08-25T07:23:36.116Z,94393.69
2022-08-25T07:26:36.193Z,94390.44
2022-08-25T07:29:04.217Z,94391.28
2022-08-25T07:31:32.428Z,94384.16
2022-08-25T07:34:17.734Z,94390.38
2022-08-25T07:36:44.478Z,94399.59
2022-08-25T07:39:11.519Z,94386.06
2022-08-25T07:41:40.817Z,94393.41
2022-08-25T07:44:08.393Z,94389.41
2022-08-25T07:46:35.085Z,94385.44
2022-08-25T07:49:02.051Z,94382.91
2022-08-25T07:51:28.866Z,94391.75
2022-08-25T07:53:55.605Z,94393.81
2022-08-25T07:56:22.274Z,94390.09
2022-08-25T07:58:48.874Z,94378.03
2022-08-25T08:01:21.288Z,94384.38
2022-08-25T08:03:50.577Z,94384.59
2022-08-25T08:06:20.847Z,94388.06
2022-08-25T08:08:49.387Z,94390.91
2022-08-25T08:11:28.707Z,94394.19
2022-08-25T08:13:57.625Z,94396.66
2022-08-25T08:16:26.864Z,94397.22
2022-08-25T08:18:53.928Z,94389.38
2022-08-25T08:21:24.459Z,94400.56
2022-08-25T08:23:56.678Z,94390.75
2022-08-25T08:26:36.416Z,94393.28
2022-08-25T08:29:08.839Z,94395.22
2022-08-25T08:31:36.596Z,94392.41
2022-08-25T08:34:03.726Z,94388.72
2022-08-25T08:36:30.320Z,94387.69
2022-08-25T08:38:56.948Z,94377.13
2022-08-25T08:42:16.950Z,94385.53
2022-08-25T08:44:47.070Z,94380.59
2022-08-25T08:50:06.518Z,94385.25
2022-08-25T08:52:41.251Z,94378.94
2022-08-25T08:55:26.604Z,94378.31
2022-08-25T08:57:56.813Z,94382.97
2022-08-25T09:00:26.088Z,94377.31
2022-08-25T09:02:54.694Z,94377.50
2022-08-25T09:05:26.088Z,94372.91
2022-08-25T09:08:03.191Z,94374.22
2022-08-25T09:10:40.394Z,94372.00
2022-08-25T09:13:38.691Z,94369.44
2022-08-25T09:16:55.735Z,94371.03
2022-08-25T09:20:02.130Z,94362.00
2022-08-25T09:22:55.844Z,94358.59
2022-08-25T09:25:48.589Z,94363.22
2022-08-25T09:28:21.918Z,94365.59
2022-08-25T09:31:16.923Z,94359.28
2022-08-25T09:33:43.749Z,94357.09
2022-08-25T09:36:10.916Z,94350.78
2022-08-25T09:38:38.549Z,94350.06
2022-08-25T09:41:05.728Z,94344.34
2022-08-25T09:43:44.806Z,94343.59
2022-08-25T09:46:29.021Z,94337.50
2022-08-25T09:48:57.762Z,94339.81
2022-08-25T09:51:38.323Z,94340.59
2022-08-25T09:54:12.622Z,94334.91
2022-08-25T09:57:01.998Z,94334.91
2022-08-25T09:59:35.190Z,94325.41
2022-08-25T10:02:05.922Z,94325.81
2022-08-25T10:04:40.084Z,94323.94
2022-08-25T10:07:28.428Z,94322.44
2022-08-25T10:09:58.806Z,94328.94
2022-08-25T10:12:51.491Z,94322.44
2022-08-25T10:15:29.641Z,94317.47
2022-08-25T10:18:19.941Z,94314.03
2022-08-25T10:21:07.641Z,94316.31
2022-08-25T10:23:37.321Z,94315.19
2022-08-25T10:26:11.764Z,94319.75
2022-08-25T10:28:54.553Z,94310.19
2022-08-25T10:31:37.354Z,94315.88
2022-08-25T10:34:37.179Z,94312.75
2022-08-25T10:37:16.938Z,94317.66
2022-08-25T10:39:55.409Z,94324.44
2022-08-25T10:42:33.836Z,94311.78
2022-08-25T10:45:28.443Z,94304.47
2022-08-25T10:48:06.979Z,94307.78
2022-08-25T10:50:40.054Z,94303.97
2022-08-25T10:53:42.411Z,94292.13
2022-08-25T10:56:26.363Z,94292.47
2022-08-25T10:59:12.475Z,94282.44
2022-08-25T11:01:53.856Z,94287.34
2022-08-25T11:04:30.954Z,94275.97
2022-08-25T11:07:10.554Z,94293.06
2022-08-25T11:09:44.363Z,94284.16
2022-08-25T11:12:38.652Z,94289.41
2022-08-25T11:15:20.407Z,94281.56
2022-08-25T11:17:53.748Z,94284.13
2022-08-25T11:20:27.024Z,94277.47
2022-08-25T11:23:08.840Z,94278.53
2022-08-25T11:25:46.098Z,94288.06
2022-08-25T11:28:14.712Z,94279.50
2022-08-25T11:30:41.997Z,94285.22
2022-08-25T11:33:13.975Z,94280.41
2022-08-25T11:35:47.682Z,94276.34
2022-08-25T11:38:17.775Z,94279.63
2022-08-25T11:40:59.530Z,94288.69
2022-08-25T11:43:56.334Z,94285.75
2022-08-25T11:46:45.558Z,94285.59
2022-08-25T11:49:44.339Z,94276.75
2022-08-25T11:52:34.842Z,94280.13
2022-08-25T11:55:12.086Z,94278.81
2022-08-25T11:57:39.553Z,94276.66
2022-08-25T12:00:08.587Z,94277.72
2022-08-25T12:02:48.699Z,94264.81
2022-08-25T12:05:15.312Z,94269.09
2022-08-25T12:07:48.258Z,94265.78
2022-08-25T12:10:19.586Z,94260.41
2022-08-25T12:12:46.538Z,94263.59
2022-08-25T12:15:53.639Z,94263.44
2022-08-25T12:18:23.074Z,94261.34
2022-08-25T12:20:58.521Z,94257.91
2022-08-25T12:23:27.862Z,94246.78
2022-08-25T12:25:57.015Z,94262.22
2022-08-25T12:28:30.339Z,94253.09
2022-08-25T12:31:12.065Z,94247.66
2022-08-25T12:33:53.968Z,94245.53
2022-08-25T12:36:31.512Z,94242.13
2022-08-25T12:39:24.328Z,94258.97
2022-08-25T12:41:58.270Z,94258.25
2022-08-25T12:44:38.231Z,94263.72
2022-08-25T12:47:28.063Z,94261.22
2022-08-25T12:50:35.140Z,94252.34
2022-08-25T12:53:12.263Z,94253.13
2022-08-25T12:55:46.474Z,94245.63
2022-08-25T12:58:13.096Z,94251.06
2022-08-25T13:01:00.884Z,94254.75
2022-08-25T13:04:06.219Z,94253.53
2022-08-25T13:06:58.320Z,94252.81
2022-08-25T13:09:50.703Z,94251.72
2022-08-25T13:12:35.527Z,94242.47
2022-08-25T13:15:02.805Z,94233.78
2022-08-25T13:17:35.644Z,94235.09
2022-08-25T13:20:30.536Z,94231.72
2022-08-25T13:25:51.759Z,94229.56
2022-08-25T13:28:30.084Z,94218.28
2022-08-25T13:31:00.233Z,94219.72
2022-08-25T13:33:27.815Z,94215.22
2022-08-25T13:36:16.313Z,94215.28
2022-08-25T13:38:46.792Z,94222.66
2022-08-25T13:41:29.372Z,94210.78
2022-08-25T13:44:01.083Z,94218.78
2022-08-25T13:46:30.070Z,94201.50
2022-08-25T13:49:06.599Z,94210.38
2022-08-25T13:51:36.488Z,94212.22
2022-08-25T13:54:07.190Z,94208.31
2022-08-25T13:56:41.902Z,94204.91
2022-08-25T13:59:40.779Z,94212.97
2022-08-25T14:02:15.260Z,94196.06
2022-08-25T14:04:50.667Z,94195.78
2022-08-25T14:07:20.161Z,94193.34
2022-08-25T14:09:57.489Z,94190.56
2022-08-25T14:15:07.331Z,94192.28
2022-08-25T14:17:39.197Z,94188.34
2022-08-25T14:20:17.252Z,94193.47
2022-08-25T14:22:44.332Z,94176.53
2022-08-25T14:25:11.344Z,94178.78
2022-08-25T14:28:05.721Z,94189.38
2022-08-25T14:30:30.125Z,94180.41
2022-08-25T14:32:57.026Z,94184.31
2022-08-25T14:35:23.672Z,94184.81
2022-08-25T14:37:50.543Z,94184.66
2022-08-25T14:40:20.033Z,94180.66
2022-08-25T14:42:47.602Z,94186.28
2022-08-25T14:45:18.938Z,94185.56
2022-08-25T14:47:49.722Z,94170.94
2022-08-25T14:50:24.668Z,94186.59
2022-08-25T14:52:52.164Z,94179.19
2022-08-25T14:55:31.678Z,94177.41
2022-08-25T14:57:59.811Z,94177.03
2022-08-25T15:00:26.721Z,94179.25
2022-08-25T15:02:54.890Z,94182.06
2022-08-25T15:05:25.698Z,94169.91
2022-08-25T15:08:12.461Z,94173.19
2022-08-25T15:10:40.363Z,94184.00
2022-08-25T15:13:07.325Z,94173.94
2022-08-25T15:15:38.804Z,94174.31
2022-08-25T15:18:19.787Z,94166.66
2022-08-25T15:20:47.047Z,94171.69
2022-08-25T15:23:18.628Z,94155.38
2022-08-25T15:25:52.863Z,94165.22
2022-08-25T15:28:21.907Z,94159.84
2022-08-25T15:30:50.059Z,94170.84
2022-08-25T15:33:17.769Z,94159.06
2022-08-25T15:35:45.128Z,94151.09
2022-08-25T15:38:12.483Z,94160.09
2022-08-25T15:40:39.864Z,94162.88
2022-08-25T15:43:07.093Z,94157.44
2022-08-25T15:45:36.234Z,94146.41
2022-08-25T15:48:04.383Z,94146.47
2022-08-25T15:50:33.718Z,94149.41
2022-08-25T15:53:00.583Z,94144.34
2022-08-25T15:55:27.509Z,94143.25
2022-08-25T15:57:55.491Z,94142.25
2022-08-25T16:00:22.838Z,94135.88
2022-08-25T16:02:49.975Z,94136.94
2022-08-25T16:05:16.785Z,94137.03
2022-08-25T16:07:45.948Z,94138.75
2022-08-25T16:10:13.686Z,94137.84
2022-08-25T16:12:42.716Z,94134.47
2022-08-25T16:15:12.098Z,94135.31
2022-08-25T16:17:40.736Z,94135.19
2022-08-25T16:20:13.827Z,94130.28
2022-08-25T16:22:41.209Z,94131.81
2022-08-25T16:25:08.485Z,94125.09
2022-08-25T16:27:38.578Z,94122.13
2022-08-25T16:30:06.889Z,94131.19
2022-08-25T16:32:33.545Z,94122.19
2022-08-25T16:35:00.719Z,94115.59
2022-08-25T16:37:27.664Z,94107.00
2022-08-25T16:39:55.417Z,94108.72
2022-08-25T16:42:22.219Z,94108.25
2022-08-25T16:44:48.841Z,94110.22
2022-08-25T16:47:25.270Z,94115.06
2022-08-25T16:49:54.326Z,94110.03
2022-08-25T16:52:40.598Z,94111.53
2022-08-25T16:55:14.359Z,94111.47
2022-08-25T16:57:44.006Z,94111.66
2022-08-25T17:00:13.840Z,94110.13
2022-08-25T17:02:42.152Z,94109.41
2022-08-25T17:05:11.396Z,94115.47
2022-08-25T17:07:38.680Z,94116.28
2022-08-25T17:10:06.694Z,94107.44
2022-08-25T17:12:39.600Z,94110.50
2022-08-25T17:15:07.513Z,94110.63
2022-08-25T17:17:36.019Z,94106.97
2022-08-25T17:20:04.820Z,94111.88
2022-08-25T17:22:31.715Z,94102.53
2022-08-25T17:25:00.704Z,94111.41
2022-08-25T17:27:27.994Z,94105.75
2022-08-25T17:29:55.824Z,94109.78
2022-08-25T17:32:28.877Z,94102.09
2022-08-25T17:34:58.095Z,94120.16
2022-08-25T17:37:24.864Z,94115.16
2022-08-25T17:39:57.429Z,94114.13
2022-08-25T17:42:30.537Z,94116.00
2022-08-25T17:44:57.989Z,94117.41
2022-08-25T17:47:24.634Z,94122.56
2022-08-25T17:49:51.216Z,94115.84
2022-08-25T17:52:17.855Z,94109.09
2022-08-25T17:54:48.137Z,94126.03
2022-08-25T17:57:16.136Z,94122.69
2022-08-25T17:59:42.938Z,94122.41
2022-08-25T18:02:09.706Z,94126.75
2022-08-25T18:04:39.063Z,94125.66
2022-08-25T18:07:06.573Z,94129.22
2022-08-25T18:09:33.233Z,94132.03
2022-08-25T18:11:59.940Z,94142.81
2022-08-25T18:14:26.782Z,94138.72
2022-08-25T18:16:53.917Z,94128.53
2022-08-25T18:19:21.205Z,94133.91
2022-08-25T18:21:48.120Z,94132.81
2022-08-25T18:24:14.687Z,94154.56
2022-08-25T18:26:41.560Z,94137.44
2022-08-25T18:29:12.075Z,94145.09
2022-08-25T18:31:41.645Z,94135.59
2022-08-25T18:34:11.023Z,94140.19
2022-08-25T18:36:38.795Z,94142.88
2022-08-25T18:39:24.729Z,94145.94
2022-08-25T18:41:51.765Z,94149.00
2022-08-25T18:44:18.413Z,94140.59
2022-08-25T18:46:45.376Z,94143.66
2022-08-25T18:49:12.767Z,94145.94
2022-08-25T18:51:44.395Z,94147.84
2022-08-25T18:54:22.410Z,94148.22
2022-08-25T18:56:50.287Z,94144.81
2022-08-25T18:59:16.892Z,94145.19
2022-08-25T19:01:44.586Z,94143.69
2022-08-25T19:04:13.514Z,94147.84
2022-08-25T19:06:40.105Z,94144.81
2022-08-25T19:09:10.835Z,94147.09
2022-08-25T19:11:38.431Z,94134.16
2022-08-25T19:14:08.081Z,94145.94
2022-08-25T19:16:41.120Z,94145.19
2022-08-25T19:19:11.561Z,94152.81
2022-08-25T19:21:38.825Z,94148.59
2022-08-25T19:24:07.020Z,94146.28
2022-08-25T19:26:36.258Z,94147.78
2022-08-25T19:29:08.964Z,94149.31
2022-08-25T19:31:37.115Z,94148.56
2022-08-25T19:34:09.003Z,94140.19
2022-08-25T19:36:35.802Z,94143.22
2022-08-25T19:39:04.747Z,94140.91
2022-08-25T19:41:31.518Z,94145.47
2022-08-25T19:43:59.451Z,94145.09
2022-08-25T19:46:35.176Z,94125.66
2022-08-25T19:49:09.149Z,94142.44
2022-08-25T19:51:38.238Z,94139.75
2022-08-25T19:54:05.936Z,94141.63
2022-08-25T19:56:35.123Z,94151.53
2022-08-25T19:59:03.814Z,94149.63
2022-08-25T20:01:30.512Z,94142.75
2022-08-25T20:03:57.146Z,94146.94
2022-08-25T20:06:24.406Z,94149.22
2022-08-25T20:08:58.907Z,94142.38
2022-08-25T20:11:28.888Z,94151.47
2022-08-25T20:13:58.184Z,94154.47
2022-08-25T20:16:28.135Z,94152.53
2022-08-25T20:18:55.013Z,94155.13
2022-08-25T20:21:21.608Z,94153.59
2022-08-25T20:24:07.287Z,94152.78
2022-08-25T20:26:33.879Z,94161.09
2022-08-25T20:29:00.544Z,94150.44
2022-08-25T20:31:27.346Z,94154.56
2022-08-25T20:33:58.507Z,94159.44
2022-08-25T20:36:26.923Z,94162.44
2022-08-25T20:38:53.502Z,94163.88
2022-08-25T20:41:20.110Z,94163.41
2022-08-25T20:43:46.744Z,94158.41
2022-08-25T20:46:13.515Z,94163.25
2022-08-25T20:48:40.185Z,94161.66
2022-08-25T20:51:08.541Z,94161.97
2022-08-25T20:53:36.627Z,94170.19
2022-08-25T20:56:08.882Z,94166.31
2022-08-25T20:58:37.598Z,94163.16
2022-08-25T21:01:37.552Z,94169.56
2022-08-25T21:04:06.076Z,94162.28
2022-08-25T21:06:36.119Z,94163.00
2022-08-25T21:09:07.595Z,94163.72
2022-08-25T21:11:41.456Z,94163.72
2022-08-25T21:14:08.080Z,94172.75
2022-08-25T21:16:38.816Z,94173.50
2022-08-25T21:19:06.037Z,94169.69
2022-08-25T21:21:38.185Z,94176.88
2022-08-25T21:24:09.744Z,94178.75
2022-08-25T21:26:37.614Z,94177.59
2022-08-25T21:29:15.571Z,94170.34
2022-08-25T21:31:42.594Z,94180.59
2022-08-25T21:34:11.681Z,94171.84
2022-08-25T21:36:39.531Z,94177.91
2022-08-25T21:39:06.737Z,94175.94
2022-08-25T21:41:35.276Z,94180.00
2022-08-25T21:44:03.869Z,94173.88
2022-08-25T21:46:32.960Z,94174.97
2022-08-25T21:49:00.874Z,94176.13
2022-08-25T21:51:44.559Z,94176.06
2022-08-25T21:54:15.221Z,94170.72
2022-08-25T21:57:02.642Z,94163.69
2022-08-25T21:59:32.575Z,94173.50
2022-08-25T22:02:02.059Z,94175.34
2022-08-25T22:04:29.687Z,94170.72
2022-08-25T22:06:58.081Z,94168.72
2022-08-25T22:09:25.286Z,94175.88
2022-08-25T22:11:54.736Z,94169.38
2022-08-25T22:14:23.476Z,94166.69
2022-08-25T22:16:52.013Z,94172.31
2022-08-25T22:19:18.820Z,94178.31
2022-08-25T22:21:45.468Z,94177.13
2022-08-25T22:24:12.300Z,94169.19
2022-08-25T22:26:39.828Z,94174.94
2022-08-25T22:29:06.615Z,94173.03
2022-08-25T22:31:35.662Z,94172.34
2022-08-25T22:34:03.404Z,94168.16
2022-08-25T22:36:34.222Z,94167.34
2022-08-25T22:39:01.665Z,94169.91
2022-08-25T22:41:29.934Z,94166.81
2022-08-25T22:43:56.802Z,94162.25
2022-08-25T22:46:27.942Z,94166.81
2022-08-25T22:48:55.627Z,94167.66
2022-08-25T22:51:25.539Z,94161.59
2022-08-25T22:53:52.217Z,94166.09
2022-08-25T22:56:29.738Z,94163.78
2022-08-25T22:59:05.766Z,94157.66
2022-08-25T23:01:33.491Z,94160.59
2022-08-25T23:04:04.191Z,94163.59
2022-08-25T23:06:34.470Z,94159.31
2022-08-25T23:09:01.588Z,94159.69
2022-08-25T23:11:28.871Z,94156.69
2022-08-25T23:13:57.542Z,94155.19
2022-08-25T23:16:24.457Z,94147.25
2022-08-25T23:18:51.184Z,94148.47
2022-08-25T23:21:38.162Z,94146.59
2022-08-25T23:24:10.747Z,94147.41
2022-08-25T23:26:42.446Z,94142.94
2022-08-25T23:29:18.073Z,94141.81
2022-08-25T23:31:47.536Z,94142.63
2022-08-25T23:34:16.601Z,94140.75
2022-08-25T23:36:44.735Z,94142.69
2022-08-25T23:39:11.466Z,94140.06
2022-08-25T23:41:38.821Z,94137.47
2022-08-25T23:44:06.750Z,94129.53
2022-08-25T23:46:36.118Z,94129.13
2022-08-25T23:49:04.917Z,94127.19
2022-08-25T23:51:34.332Z,94134.28
2022-08-25T23:54:05.793Z,94127.22
2022-08-25T23:56:34.412Z,94133.81
2022-08-25T23:59:05.126Z,94126.81
